Time;durP1;ratioP1;P1;durP2;ratioP2;P2;SDS_P1;SDS_P2;PMS_P1;PMS_P2;Temp;Humidity;BMP_temperature;BMP_pressure;BME280_temperature;BME280_humidity;BME280_pressure;Samples;Min_cycle;Max_cycle;Signal;HPM_P1;HPM_P2
2021/06/01 00:01:55;;;;;;;12.70;5.50;;;;;;;9.86;59.32;99987.19;5012168;28;20141;-71
2021/06/01 00:04:21;;;;;;;11.05;5.20;;;;;;;9.84;59.38;99993.53;5012493;28;20124;-72
2021/06/01 00:06:47;;;;;;;13.55;5.85;;;;;;;9.87;59.52;99999.44;5012407;28;20041;-69
2021/06/01 00:09:16;;;;;;;11.45;5.47;;;;;;;9.85;59.45;99996.06;5010927;28;20038;-72
2021/06/01 00:11:42;;;;;;;11.55;5.43;;;;;;;9.85;59.59;99996.06;5011080;28;20459;-72
2021/06/01 00:14:08;;;;;;;15.70;5.78;;;;;;;9.83;59.78;99995.34;5011839;28;20128;-73
2021/06/01 00:16:34;;;;;;;13.60;5.05;;;;;;;9.84;59.84;99999.69;5012021;28;20115;-71
2021/06/01 00:19:00;;;;;;;11.68;5.47;;;;;;;9.91;59.41;99999.25;5012070;28;20132;-71
2021/06/01 00:21:26;;;;;;;14.80;5.30;;;;;;;9.93;58.87;99997.34;5012234;28;20092;-72
2021/06/01 00:23:54;;;;;;;13.48;5.15;;;;;;;9.88;59.08;99995.84;5021935;28;20029;-71
2021/06/01 00:26:21;;;;;;;12.27;5.28;;;;;;;9.93;58.84;99997.34;5031602;28;20401;-72
2021/06/01 00:28:47;;;;;;;15.70;5.25;;;;;;;9.88;58.88;99995.84;5032234;28;20029;-72
2021/06/01 00:31:13;;;;;;;10.93;4.95;;;;;;;9.88;58.72;99995.00;5031874;28;20083;-70
2021/06/01 00:33:39;;;;;;;9.60;5.28;;;;;;;9.96;58.55;99997.13;5031781;28;20072;-70
2021/06/01 00:36:06;;;;;;;8.85;4.75;;;;;;;9.98;58.69;99997.84;5031403;28;20064;-70
2021/06/01 00:38:32;;;;;;;9.70;5.57;;;;;;;10.04;58.48;99997.44;5009436;28;20117;-70
2021/06/01 00:40:57;;;;;;;9.48;5.07;;;;;;;10.06;58.58;99995.53;4991888;28;20125;-70
2021/06/01 00:43:24;;;;;;;11.32;4.70;;;;;;;10.08;58.44;99998.06;4994959;28;20066;-70
2021/06/01 00:45:50;;;;;;;11.60;5.43;;;;;;;10.07;58.41;99997.22;4995822;28;20038;-71
2021/06/01 00:48:15;;;;;;;10.73;5.60;;;;;;;10.04;58.29;99995.66;4996148;28;20168;-71
2021/06/01 00:50:41;;;;;;;11.68;5.50;;;;;;;10.07;58.29;99999.00;4995769;28;20038;-71
2021/06/01 00:53:07;;;;;;;23.08;6.63;;;;;;;10.03;58.37;99999.25;4995780;28;20109;-70
2021/06/01 00:55:34;;;;;;;12.93;5.57;;;;;;;10.08;58.42;100004.22;4996018;28;20431;-70
2021/06/01 00:58:00;;;;;;;11.18;6.00;;;;;;;10.06;58.56;99999.97;4994423;28;20034;-69
2021/06/01 01:03:05;;;;;;;12.93;6.32;;;;;;;10.05;58.64;100004.41;4996002;28;20034;-70
2021/06/01 01:05:36;;;;;;;16.85;6.70;;;;;;;10.09;58.81;100005.88;4995740;28;20422;-70
2021/06/01 01:11:09;;;;;;;14.45;5.95;;;;;;;10.00;59.14;100003.88;4994047;28;20129;-71
2021/06/01 01:13:48;;;;;;;16.45;6.05;;;;;;;10.00;59.13;100002.06;4995592;28;20452;-71
2021/06/01 01:16:15;;;;;;;17.40;6.03;;;;;;;10.00;59.18;99998.59;4995449;28;20034;-70
2021/06/01 01:18:44;;;;;;;14.93;7.22;;;;;;;10.01;61.74;100005.59;4994133;28;20034;-71
2021/06/01 01:21:18;;;;;;;20.35;6.68;;;;;;;9.93;62.51;100002.63;4995205;28;20185;-68
2021/06/01 01:23:53;;;;;;;14.05;6.22;;;;;;;9.88;63.18;100003.78;5012079;28;20410;-71
2021/06/01 01:26:44;;;;;;;17.95;5.93;;;;;;;9.88;63.25;100008.22;5034683;28;20609;-72
2021/06/01 01:29:17;;;;;;;16.20;6.63;;;;;;;9.81;64.19;100009.59;5033287;28;20064;-71
2021/06/01 01:31:55;;;;;;;13.70;6.50;;;;;;;9.73;64.52;100012.75;5033653;28;20040;-70
2021/06/01 01:34:21;;;;;;;14.95;7.25;;;;;;;9.67;65.00;100013.16;5033456;28;20044;-70
2021/06/01 01:36:47;;;;;;;19.98;6.63;;;;;;;9.60;65.56;100017.19;5033227;28;20046;-70
2021/06/01 01:39:14;;;;;;;9.60;6.70;;;;;;;9.53;65.85;100020.25;5033493;28;20064;-70
2021/06/01 01:41:40;;;;;;;12.87;5.90;;;;;;;9.54;66.23;100026.34;5034504;28;20478;-70
2021/06/01 01:44:11;;;;;;;19.50;6.78;;;;;;;9.60;66.16;100018.03;5034086;28;20030;-70
2021/06/01 01:49:09;;;;;;;14.18;6.28;;;;;;;9.65;66.04;100023.84;5034150;28;20033;-69
2021/06/01 01:51:40;;;;;;;19.90;7.20;;;;;;;9.63;66.38;100022.25;5034333;28;20037;-71
2021/06/01 01:54:17;;;;;;;15.30;6.70;;;;;;;9.62;66.67;100025.84;5033787;28;20050;-71
2021/06/01 01:56:50;;;;;;;18.10;6.75;;;;;;;9.67;65.95;100023.72;5034112;28;20366;-71
2021/06/01 01:59:22;;;;;;;14.55;6.35;;;;;;;9.64;66.52;100023.94;5033135;28;20088;-71
2021/06/01 02:01:50;;;;;;;11.82;6.15;;;;;;;9.64;65.98;100024.78;5013974;28;20533;-71
2021/06/01 02:04:24;;;;;;;15.85;7.25;;;;;;;9.74;65.86;100024.16;4994109;28;20066;-72
2021/06/01 02:06:54;;;;;;;22.40;7.05;;;;;;;9.67;65.12;100016.66;4993524;28;20036;-71
2021/06/01 02:09:20;;;;;;;21.88;6.47;;;;;;;9.72;64.71;100024.28;5000405;28;20034;-73
2021/06/01 02:11:46;;;;;;;21.80;7.18;;;;;;;9.73;63.92;100027.75;5014056;28;20074;-70
2021/06/01 02:14:12;;;;;;;18.35;7.22;;;;;;;9.78;63.68;100021.22;5013664;28;20065;-70
2021/06/01 02:16:40;;;;;;;18.40;6.93;;;;;;;9.77;63.44;100023.94;5013832;28;20034;-71
2021/06/01 02:19:08;;;;;;;19.08;6.95;;;;;;;9.76;62.66;100023.13;5013686;28;20485;-73
2021/06/01 02:22:27;;;;;;;14.57;7.30;;;;;;;9.82;62.44;100022.69;5013845;28;20134;-71
2021/06/01 02:24:54;;;;;;;16.60;7.00;;;;;;;9.93;60.97;100024.63;5032357;28;20030;-72
2021/06/01 02:27:30;;;;;;;23.73;9.25;;;;;;;10.01;60.69;100021.44;5032506;28;20064;-70
2021/06/01 02:30:02;;;;;;;19.23;8.65;;;;;;;10.06;60.41;100029.88;5033381;28;20362;-69
2021/06/01 02:33:00;;;;;;;20.63;7.25;;;;;;;10.12;59.34;100029.47;5033436;28;20033;-71
2021/06/01 02:35:31;;;;;;;14.27;6.70;;;;;;;10.24;59.55;100037.47;5030771;28;20045;-71
2021/06/01 02:38:00;;;;;;;12.98;6.38;;;;;;;10.30;58.79;100031.78;5021330;28;20033;-71
2021/06/01 02:40:26;;;;;;;17.65;6.68;;;;;;;10.42;58.62;100045.94;5006332;28;20049;-70
2021/06/01 02:42:53;;;;;;;13.10;7.22;;;;;;;10.50;57.77;100033.91;5010606;28;20121;-70
2021/06/01 02:45:21;;;;;;;17.23;7.55;;;;;;;10.55;56.50;100030.06;5010995;28;20049;-72
2021/06/01 02:47:47;;;;;;;15.98;7.40;;;;;;;10.56;55.50;100026.47;5010350;28;20172;-72
2021/06/01 02:50:15;;;;;;;25.17;7.95;;;;;;;10.55;55.42;100036.19;5009348;28;20687;-71
2021/06/01 02:52:42;;;;;;;22.17;7.82;;;;;;;10.61;55.42;100034.91;4977957;28;20403;-71
2021/06/01 02:55:11;;;;;;;18.85;7.43;;;;;;;10.77;54.66;100035.50;5009425;28;20053;-71
2021/06/01 02:57:38;;;;;;;21.23;7.47;;;;;;;10.88;54.18;100031.22;5010712;28;20038;-70
2021/06/01 03:00:06;;;;;;;15.02;7.45;;;;;;;10.96;54.01;100028.88;5009619;28;20042;-72
2021/06/01 03:02:32;;;;;;;24.98;8.00;;;;;;;10.90;53.89;100038.09;5010269;28;20037;-71
2021/06/01 03:04:57;;;;;;;17.83;8.20;;;;;;;10.90;54.04;100034.63;5008945;28;20088;-70
2021/06/01 03:07:23;;;;;;;16.45;8.40;;;;;;;10.80;53.54;100030.00;5009978;28;20140;-71
2021/06/01 03:09:49;;;;;;;22.88;8.50;;;;;;;10.77;53.97;100035.50;5009981;28;20607;-71
2021/06/01 03:12:37;;;;;;;16.45;8.32;;;;;;;10.78;53.79;100037.19;4991236;28;20046;-71
2021/06/01 03:15:05;;;;;;;23.52;8.80;;;;;;;10.77;54.34;100032.84;4993549;28;20042;-70
2021/06/01 03:17:31;;;;;;;20.20;9.02;;;;;;;10.77;54.37;100034.66;4993556;28;20052;-71
2021/06/01 03:19:57;;;;;;;26.90;8.68;;;;;;;10.73;54.29;100028.75;4992771;28;20121;-72
2021/06/01 03:22:22;;;;;;;21.92;9.48;;;;;;;10.71;54.43;100043.88;4994215;28;20042;-71
2021/06/01 03:24:48;;;;;;;16.73;8.75;;;;;;;10.75;54.21;100042.69;4993756;28;20038;-72
2021/06/01 03:27:14;;;;;;;22.10;9.13;;;;;;;10.73;54.24;100041.97;4992585;28;20046;-70
2021/06/01 03:29:40;;;;;;;20.65;9.38;;;;;;;10.71;54.19;100040.41;4992662;28;20093;-72
2021/06/01 03:32:07;;;;;;;20.60;8.63;;;;;;;10.79;54.02;100044.19;4992580;28;20466;-74
2021/06/01 03:34:33;;;;;;;21.50;9.20;;;;;;;10.91;54.01;100041.59;4992799;28;20395;-71
2021/06/01 03:37:00;;;;;;;23.95;9.20;;;;;;;10.91;53.36;100049.53;4992439;28;20034;-71
2021/06/01 03:39:28;;;;;;;18.70;8.40;;;;;;;11.02;53.56;100044.31;4991422;28;20061;-70
2021/06/01 03:41:53;;;;;;;;;;;;;;;11.21;52.33;100045.59;4993031;28;20460;-72
2021/06/01 03:44:19;;;;;;;38.25;23.73;;;;;;;11.27;54.33;100058.41;4991520;28;19909;-71
2021/06/01 03:46:45;;;;;;;38.30;21.65;;;;;;;11.39;54.04;100052.19;4991664;28;20053;-70
2021/06/01 03:49:11;;;;;;;29.95;16.48;;;;;;;11.38;54.49;100053.16;4992103;28;20106;-71
2021/06/01 03:51:36;;;;;;;26.50;13.07;;;;;;;11.62;53.46;100058.38;4992529;28;20034;-73
2021/06/01 03:54:03;;;;;;;20.55;9.40;;;;;;;11.81;52.28;100052.56;4992965;28;20041;-73
2021/06/01 03:56:29;;;;;;;20.83;10.50;;;;;;;12.06;52.29;100056.03;4992907;28;20092;-71
2021/06/01 03:58:55;;;;;;;21.50;9.32;;;;;;;12.41;50.17;100055.06;4992139;28;20038;-72
2021/06/01 04:01:21;;;;;;;11.68;6.68;;;;;;;12.47;47.49;100048.41;4992493;28;20049;-72
2021/06/01 04:03:46;;;;;;;18.98;8.00;;;;;;;12.95;47.96;100057.91;4992082;28;20046;-73
2021/06/01 04:06:12;;;;;;;19.70;8.57;;;;;;;13.58;46.97;100054.56;4990585;28;20117;-71
2021/06/01 04:08:39;;;;;;;18.48;8.15;;;;;;;13.59;45.82;100062.41;4991182;28;20038;-72
2021/06/01 04:11:05;;;;;;;13.43;7.55;;;;;;;13.74;45.95;100059.44;4990868;28;20502;-71
2021/06/01 04:13:31;;;;;;;14.35;6.72;;;;;;;13.68;44.37;100060.81;4992395;28;20042;-73
2021/06/01 04:15:57;;;;;;;12.10;5.72;;;;;;;13.66;44.00;100065.38;4991804;28;20034;-73
2021/06/01 04:18:23;;;;;;;14.88;6.35;;;;;;;13.90;43.72;100061.63;4992375;28;20409;-74
2021/06/01 04:20:49;;;;;;;14.15;6.25;;;;;;;14.17;43.53;100062.91;4992494;28;20117;-74
2021/06/01 04:23:15;;;;;;;9.63;5.00;;;;;;;14.25;42.32;100063.09;5001941;28;20187;-75
2021/06/01 04:25:41;;;;;;;11.65;5.70;;;;;;;14.40;42.46;100061.78;5031274;28;20352;-73
2021/06/01 04:28:07;;;;;;;11.10;3.90;;;;;;;14.61;41.46;100063.50;5031243;28;20053;-72
2021/06/01 04:30:33;;;;;;;20.63;5.45;;;;;;;14.64;41.29;100068.59;5025232;28;20175;-76
2021/06/01 04:32:59;;;;;;;10.00;4.10;;;;;;;14.55;39.46;100064.91;4998786;28;20038;-72
2021/06/01 04:35:25;;;;;;;11.73;4.07;;;;;;;14.33;40.36;100068.59;4998720;28;20044;-73
2021/06/01 04:37:52;;;;;;;9.25;3.92;;;;;;;14.31;40.35;100067.03;5005598;28;20049;-70
2021/06/01 04:40:18;;;;;;;11.18;3.90;;;;;;;14.56;40.27;100066.56;5005457;28;20121;-71
2021/06/01 04:42:45;;;;;;;9.18;3.95;;;;;;;14.80;39.47;100067.25;5000030;28;20177;-71
2021/06/01 04:45:14;;;;;;;9.43;3.65;;;;;;;14.89;39.00;100066.41;4991837;28;20035;-71
2021/06/01 04:47:41;;;;;;;8.98;3.50;;;;;;;15.30;38.31;100069.88;4998308;28;20110;-70
2021/06/01 04:50:08;;;;;;;16.17;5.05;;;;;;;15.64;38.17;100065.94;5005319;28;20064;-73
2021/06/01 04:52:34;;;;;;;11.50;3.42;;;;;;;15.65;37.28;100064.94;4999411;28;20030;-71
2021/06/01 04:54:59;;;;;;;10.48;3.40;;;;;;;15.95;37.39;100063.97;5001024;28;20044;-72
2021/06/01 04:57:25;;;;;;;9.90;3.58;;;;;;;16.10;36.58;100063.47;4995083;28;20054;-71
2021/06/01 04:59:51;;;;;;;12.00;4.10;;;;;;;15.93;36.70;100059.75;5000886;28;20474;-73
2021/06/01 05:02:17;;;;;;;11.35;3.63;;;;;;;15.99;36.88;100068.00;4991430;28;20539;-71
2021/06/01 05:04:43;;;;;;;13.70;3.92;;;;;;;16.08;36.21;100074.31;4998533;28;20026;-69
2021/06/01 05:07:09;;;;;;;13.38;4.22;;;;;;;16.10;36.28;100066.16;5008462;28;20033;-71
2021/06/01 05:09:35;;;;;;;13.07;4.18;;;;;;;15.85;36.67;100073.81;5011054;28;20038;-74
2021/06/01 05:12:00;;;;;;;15.40;3.80;;;;;;;15.91;36.69;100078.53;5003454;28;20452;-71
2021/06/01 05:14:26;;;;;;;16.85;6.43;;;;;;;16.19;36.41;100075.97;4990491;28;20030;-72
2021/06/01 05:16:52;;;;;;;10.32;4.53;;;;;;;15.62;36.67;100079.41;4990238;28;20467;-71
2021/06/01 05:19:18;;;;;;;8.20;3.90;;;;;;;15.73;37.21;100075.75;4991358;28;20062;-71
2021/06/01 05:21:44;;;;;;;19.38;4.47;;;;;;;15.67;37.32;100087.81;4991488;28;20168;-71
2021/06/01 05:24:11;;;;;;;8.32;3.95;;;;;;;15.73;36.59;100075.75;5015214;28;20054;-73
2021/06/01 05:26:37;;;;;;;12.38;4.55;;;;;;;15.93;36.78;100087.25;5031082;28;20367;-73
2021/06/01 05:29:03;;;;;;;11.15;4.53;;;;;;;16.20;36.86;100077.66;5047710;28;20068;-73
2021/06/01 05:33:57;;;;;;;10.05;5.05;;;;;;;16.54;36.40;100077.09;5034362;28;20433;-73
2021/06/01 05:36:24;;;;;;;11.75;5.30;;;;;;;16.75;35.47;100076.03;5032958;28;20394;-74
2021/06/01 05:38:50;;;;;;;12.05;5.05;;;;;;;17.02;35.71;100072.50;5034486;28;20120;-72
2021/06/01 05:41:16;;;;;;;13.43;5.15;;;;;;;17.22;34.23;100078.59;5034030;28;20196;-72
2021/06/01 05:43:42;;;;;;;7.78;5.25;;;;;;;16.65;34.10;100076.09;5026200;28;20042;-72
2021/06/01 05:46:08;;;;;;;10.43;5.28;;;;;;;17.00;34.64;100079.84;5002178;28;20061;-72
2021/06/01 05:48:34;;;;;;;9.05;5.55;;;;;;;17.31;33.96;100076.84;5004135;28;20084;-74
2021/06/01 05:51:01;;;;;;;12.05;5.10;;;;;;;17.29;34.27;100084.16;4997373;28;20438;-73
2021/06/01 05:53:27;;;;;;;10.25;4.75;;;;;;;17.22;33.62;100075.91;5013654;28;20053;-73
2021/06/01 05:55:54;;;;;;;10.40;4.65;;;;;;;17.30;33.58;100080.50;5007214;28;20065;-72
2021/06/01 05:58:21;;;;;;;13.38;5.05;;;;;;;16.96;34.67;100082.00;5004408;28;20121;-72
2021/06/01 06:00:47;;;;;;;11.73;5.40;;;;;;;17.58;33.61;100083.94;4994539;28;20085;-70
2021/06/01 06:03:14;;;;;;;12.98;5.15;;;;;;;17.78;33.67;100081.06;5003374;28;20050;-71
2021/06/01 06:05:40;;;;;;;13.80;5.10;;;;;;;18.19;32.88;100078.72;4999598;28;20038;-74
2021/06/01 06:08:09;;;;;;;9.38;4.20;;;;;;;17.86;33.16;100085.69;4997500;28;20065;-72
2021/06/01 06:10:35;;;;;;;8.05;4.88;;;;;;;17.63;33.29;100086.13;5012447;28;20434;-73
2021/06/01 06:13:01;;;;;;;7.50;4.72;;;;;;;17.70;32.95;100091.72;4994609;28;20037;-72
2021/06/01 06:15:30;;;;;;;11.25;5.28;;;;;;;18.05;33.00;100082.81;4994637;28;20143;-73
2021/06/01 06:18:14;;;;;;;10.68;6.13;;;;;;;18.59;32.54;100087.13;4994362;28;20488;-73
2021/06/01 06:20:40;;;;;;;13.40;5.22;;;;;;;18.79;31.73;100089.56;4999097;28;20049;-73
2021/06/01 06:23:05;;;;;;;10.45;5.32;;;;;;;18.52;32.68;100088.78;5004222;28;20041;-72
2021/06/01 06:25:31;;;;;;;12.85;5.88;;;;;;;18.03;32.73;100089.31;4996528;28;20030;-72
2021/06/01 06:27:57;;;;;;;12.57;5.53;;;;;;;18.39;32.69;100089.22;4993899;28;20046;-72
2021/06/01 06:30:24;;;;;;;18.25;6.88;;;;;;;19.04;32.01;100091.38;5009074;28;20680;-75
2021/06/01 06:32:51;;;;;;;14.30;6.45;;;;;;;19.69;31.18;100079.03;5007793;28;20029;-75
2021/06/01 06:35:17;;;;;;;14.27;6.10;;;;;;;19.40;31.08;100079.50;4994701;28;20030;-78
2021/06/01 06:37:43;;;;;;;10.90;5.85;;;;;;;19.29;31.18;100077.16;5000144;28;20123;-74
2021/06/01 06:40:09;;;;;;;12.85;5.55;;;;;;;19.59;30.56;100080.19;5003671;28;20070;-73
2021/06/01 06:42:36;;;;;;;21.58;7.82;;;;;;;20.15;30.24;100078.53;4994178;28;20371;-74
2021/06/01 06:45:07;;;;;;;20.70;8.00;;;;;;;19.41;30.50;100083.88;5002605;28;20120;-75
2021/06/01 06:50:12;;;;;;;17.52;8.27;;;;;;;21.33;28.80;100076.84;4993681;28;20149;-74
2021/06/01 06:52:40;;;;;;;25.30;6.75;;;;;;;21.33;28.43;100070.63;4993763;28;20121;-74
2021/06/01 06:55:08;;;;;;;15.07;8.13;;;;;;;22.19;27.97;100070.41;4993642;28;20045;-73
2021/06/01 06:57:39;;;;;;;15.15;7.07;;;;;;;23.01;26.55;100071.28;4993735;28;20538;-73
2021/06/01 07:00:11;;;;;;;14.48;7.20;;;;;;;22.40;26.70;100076.97;4995912;28;20530;-73
2021/06/01 07:02:38;;;;;;;16.85;7.35;;;;;;;22.39;26.77;100075.28;4993503;28;20057;-72
2021/06/01 07:05:05;;;;;;;20.13;10.90;;;;;;;22.76;27.00;100079.72;5000041;28;20034;-73
2021/06/01 07:07:31;;;;;;;16.20;8.20;;;;;;;23.00;26.56;100076.88;5013104;28;20050;-75
2021/06/01 07:09:57;;;;;;;13.80;8.18;;;;;;;22.23;26.53;100074.41;5007335;28;20072;-72
2021/06/01 07:12:22;;;;;;;9.60;5.78;;;;;;;22.06;27.40;100075.59;5003161;28;20057;-73
2021/06/01 07:14:51;;;;;;;13.85;5.78;;;;;;;21.68;27.28;100073.75;4993294;28;20065;-73
2021/06/01 07:17:18;;;;;;;15.48;7.20;;;;;;;22.45;27.41;100070.00;4998256;28;20076;-72
2021/06/01 07:19:50;;;;;;;12.93;6.00;;;;;;;21.76;27.35;100081.75;5000901;28;20073;-70
2021/06/01 07:22:16;;;;;;;16.75;6.93;;;;;;;22.76;26.44;100076.19;5000094;28;20513;-72
2021/06/01 07:24:42;;;;;;;18.50;7.15;;;;;;;22.60;26.71;100071.81;5027156;28;20116;-75
2021/06/01 07:27:07;;;;;;;8.73;5.90;;;;;;;22.58;26.05;100066.63;5031979;28;20060;-75
2021/06/01 07:29:33;;;;;;;11.40;5.40;;;;;;;22.69;25.81;100064.47;4996629;28;20041;-71
2021/06/01 07:31:59;;;;;;;10.48;5.28;;;;;;;23.40;24.89;100070.09;5006142;28;20046;-71
2021/06/01 07:34:25;;;;;;;9.07;4.50;;;;;;;24.25;24.27;100073.88;5012464;28;20444;-72
2021/06/01 07:36:51;;;;;;;9.93;4.55;;;;;;;23.64;24.36;100069.84;5012528;28;20038;-73
2021/06/01 07:39:16;;;;;;;5.93;3.45;;;;;;;23.31;23.60;100065.81;5012748;28;20087;-77
2021/06/01 07:41:42;;;;;;;4.55;3.58;;;;;;;23.70;23.70;100067.22;5012263;28;20084;-71
2021/06/01 07:44:08;;;;;;;9.48;4.20;;;;;;;22.96;24.32;100073.72;5013037;28;20034;-72
2021/06/01 07:46:34;;;;;;;7.90;5.38;;;;;;;23.40;24.04;100061.97;5014626;28;20471;-74
2021/06/01 07:49:00;;;;;;;11.40;4.68;;;;;;;24.13;23.62;100066.31;5013908;28;20360;-75
2021/06/01 07:51:30;;;;;;;17.65;8.32;;;;;;;24.60;23.20;100058.47;5013842;28;20046;-73
2021/06/01 07:54:02;;;;;;;10.98;4.50;;;;;;;24.60;22.81;100063.88;5000723;28;20030;-75
2021/06/01 07:56:28;;;;;;;7.40;4.15;;;;;;;25.13;22.68;100063.25;5003439;28;20195;-74
2021/06/01 07:58:54;;;;;;;12.18;4.43;;;;;;;23.57;23.72;100070.63;5012514;28;20121;-72
2021/06/01 08:01:20;;;;;;;9.07;3.95;;;;;;;23.51;23.23;100059.78;4997502;28;20026;-73
2021/06/01 08:03:46;;;;;;;7.30;3.53;;;;;;;23.13;23.78;100068.09;4995032;28;20034;-73
2021/06/01 08:06:12;;;;;;;7.05;3.55;;;;;;;23.41;23.63;100074.47;4992540;28;20121;-74
2021/06/01 08:08:38;;;;;;;16.40;8.00;;;;;;;24.68;23.04;100058.31;4997085;28;20347;-74
2021/06/01 08:11:05;;;;;;;12.05;4.18;;;;;;;24.90;22.67;100054.66;5002032;28;20429;-73
2021/06/01 08:13:31;;;;;;;6.93;3.78;;;;;;;25.43;22.07;100067.50;5002835;28;20113;-76
2021/06/01 08:15:57;;;;;;;9.25;3.65;;;;;;;24.76;22.54;100068.16;5002261;28;20030;-72
2021/06/01 08:18:26;;;;;;;8.57;3.87;;;;;;;23.62;22.88;100056.56;4999489;28;20045;-74
2021/06/01 08:23:21;;;;;;;6.03;3.88;;;;;;;25.80;21.55;100068.78;5005475;28;20038;-74
2021/06/01 08:25:47;;;;;;;7.72;4.75;;;;;;;26.30;20.88;100067.50;5011690;28;20080;-72
2021/06/01 08:28:13;;;;;;;8.10;4.05;;;;;;;25.51;21.03;100064.63;5019602;28;20038;-74
2021/06/01 08:30:38;;;;;;;7.25;4.15;;;;;;;25.59;21.35;100064.41;5001803;28;20037;-72
2021/06/01 08:33:04;;;;;;;6.28;4.18;;;;;;;24.12;22.83;100071.94;5006416;28;20046;-76
2021/06/01 08:35:31;;;;;;;7.38;3.72;;;;;;;24.63;22.63;100071.59;4992264;28;20126;-73
2021/06/01 08:37:56;;;;;;;6.70;4.15;;;;;;;25.31;22.54;100062.69;4995113;28;20026;-74
2021/06/01 08:40:22;;;;;;;9.90;3.90;;;;;;;24.45;22.68;100068.59;4993163;28;20046;-72
2021/06/01 08:42:49;;;;;;;8.23;4.47;;;;;;;25.55;22.28;100071.28;5000982;28;20364;-74
2021/06/01 08:45:15;;;;;;;10.73;4.70;;;;;;;24.99;22.10;100069.69;5000033;28;20040;-76
2021/06/01 08:47:41;;;;;;;8.50;3.60;;;;;;;25.17;21.78;100061.81;5008139;28;20475;-75
2021/06/01 08:50:11;;;;;;;7.88;4.20;;;;;;;25.67;21.18;100066.06;5011350;28;20042;-73
2021/06/01 08:52:38;;;;;;;9.73;4.50;;;;;;;27.10;20.82;100059.06;5011651;28;20120;-75
2021/06/01 08:55:05;;;;;;;10.82;4.38;;;;;;;28.08;19.68;100056.03;5011498;28;20367;-73
2021/06/01 08:57:33;;;;;;;9.75;3.78;;;;;;;25.81;21.50;100061.50;5013039;28;20072;-72
2021/06/01 08:59:59;;;;;;;9.02;4.10;;;;;;;24.39;22.62;100070.22;5011626;28;20038;-73
2021/06/01 09:02:25;;;;;;;7.82;4.10;;;;;;;26.22;21.26;100057.72;5011881;28;20041;-75
2021/06/01 09:04:58;;;;;;;10.55;4.10;;;;;;;27.13;20.42;100063.22;5014984;28;20048;-75
2021/06/01 09:07:39;;;;;;;9.15;4.05;;;;;;;27.86;19.54;100055.59;5015375;28;20475;-76
2021/06/01 09:10:28;;;;;;;6.10;3.78;;;;;;;28.63;18.56;100065.28;5015063;28;20517;-73
2021/06/01 09:21:33;;;;;;;11.40;4.20;;;;;;;29.05;18.13;100055.31;4995690;28;20273;-78
2021/06/01 09:24:03;;;;;;;9.85;4.65;;;;;;;28.58;18.74;100064.03;5018178;28;20045;-77
2021/06/01 09:26:54;;;;;;;7.68;4.55;;;;;;;28.77;18.04;100058.63;5018629;28;20054;-78
2021/06/01 09:29:21;;;;;;;8.95;4.20;;;;;;;28.46;18.80;100063.13;5015074;28;20092;-73
2021/06/01 09:32:23;;;;;;;5.60;4.22;;;;;;;28.11;18.68;100063.72;5012020;28;20431;-76
2021/06/01 09:34:50;;;;;;;12.05;4.40;;;;;;;28.61;19.52;100061.94;5012259;28;20034;-74
2021/06/01 09:37:42;;;;;;;9.68;4.95;;;;;;;29.31;18.48;100055.16;5012125;28;20126;-74
2021/06/01 09:40:11;;;;;;;10.73;4.75;;;;;;;28.75;18.82;100066.19;5009272;28;20429;-72
2021/06/01 09:42:40;;;;;;;13.20;4.45;;;;;;;26.43;20.73;100069.31;5012261;28;20339;-77
2021/06/01 09:45:12;;;;;;;9.32;4.82;;;;;;;24.39;22.54;100076.47;5004934;28;20038;-73
2021/06/01 09:47:54;;;;;;;7.97;4.97;;;;;;;25.38;21.73;100064.59;4997825;28;20406;-75
2021/06/01 09:53:01;;;;;;;10.77;4.85;;;;;;;24.82;22.58;100058.38;4994870;28;20174;-75
2021/06/01 09:55:34;;;;;;;9.00;5.18;;;;;;;24.04;23.54;100067.53;5011786;28;20046;-74
2021/06/01 09:58:06;;;;;;;10.13;4.63;;;;;;;22.90;25.10;100061.84;5011665;28;20045;-72
2021/06/01 10:00:35;;;;;;;7.78;4.72;;;;;;;22.01;26.55;100062.69;5012021;28;20044;-74
2021/06/01 10:03:03;;;;;;;10.00;4.82;;;;;;;21.86;26.34;100061.81;5009221;28;20053;-74
2021/06/01 10:05:49;;;;;;;16.42;5.97;;;;;;;23.14;25.76;100050.88;5010889;28;20418;-75
2021/06/01 10:08:16;;;;;;;6.38;3.85;;;;;;;23.86;23.76;100058.00;5005955;28;20403;-74
2021/06/01 10:11:18;;;;;;;11.18;4.05;;;;;;;25.67;22.57;100050.66;4994795;28;20201;-74
2021/06/01 10:13:45;;;;;;;9.40;4.55;;;;;;;26.71;21.12;100046.50;5011283;28;20046;-77
2021/06/01 10:16:16;;;;;;;9.65;4.57;;;;;;;25.87;21.24;100054.38;5011301;28;20042;-76
2021/06/01 10:18:44;;;;;;;9.60;5.18;;;;;;;23.29;24.16;100062.50;4995082;28;20501;-72
2021/06/01 10:21:21;;;;;;;12.80;4.32;;;;;;;21.57;26.64;100066.97;5011492;28;20099;-76
2021/06/01 10:23:51;;;;;;;11.00;4.43;;;;;;;21.30;26.99;100062.94;5020882;28;20522;-75
2021/06/01 10:26:17;;;;;;;9.40;4.60;;;;;;;22.07;25.92;100061.94;5014716;28;20099;-73
2021/06/01 10:28:47;;;;;;;7.97;4.35;;;;;;;22.21;25.70;100054.06;5031440;28;20042;-71
2021/06/01 10:31:15;;;;;;;5.75;4.22;;;;;;;21.91;25.23;100051.34;5014355;28;20045;-74
2021/06/01 10:33:55;;;;;;;10.30;4.75;;;;;;;22.01;25.89;100051.91;5030952;28;20041;-74
2021/06/01 10:44:55;;;;;;;6.68;3.95;;;;;;;21.64;26.68;100042.84;5030923;28;20043;-73
2021/06/01 10:48:44;;;;;;;8.40;4.20;;;;;;;22.14;26.28;100041.34;5015926;28;20103;-73
2021/06/01 10:53:19;;;;;;;13.07;4.15;;;;;;;22.03;25.35;100044.50;5048725;28;20344;-73
2021/06/01 10:55:58;;;;;;;7.97;3.78;;;;;;;22.16;25.67;100034.91;5033312;28;20354;-74
2021/06/01 10:58:32;;;;;;;10.93;3.88;;;;;;;22.73;24.68;100039.66;5033380;28;20042;-74
2021/06/01 11:04:05;;;;;;;12.17;4.83;;;;;;;20.70;26.71;100038.38;5033027;28;20041;-76
2021/06/01 11:06:58;;;;;;;11.38;4.70;;;;;;;20.11;28.07;100028.84;5045658;28;20033;-76
2021/06/01 11:09:33;;;;;;;8.68;4.60;;;;;;;20.45;29.28;100027.72;5001450;28;20045;-75
2021/06/01 11:12:18;;;;;;;12.48;7.47;;;;;;;21.02;27.22;100017.69;5013034;28;20039;-76
2021/06/01 11:14:51;;;;;;;9.52;4.30;;;;;;;21.50;26.24;100018.34;5013421;28;20044;-74
2021/06/01 11:17:36;;;;;;;6.38;3.60;;;;;;;21.75;26.16;100030.78;5005139;28;20096;-74
2021/06/01 11:20:12;;;;;;;7.75;3.60;;;;;;;21.92;24.94;100015.28;5011761;28;20041;-73
2021/06/01 11:29:03;;;;;;;5.63;3.42;;;;;;;21.34;25.51;100013.09;5032360;28;20144;-74
2021/06/01 11:33:35;;;;;;;8.77;3.15;;;;;;;20.47;26.51;100006.91;5030964;28;20357;-75
2021/06/01 11:36:08;;;;;;;6.03;3.33;;;;;;;20.72;26.15;100006.78;5031121;28;20045;-71
2021/06/01 11:41:19;;;;;;;22.95;10.38;;;;;;;20.91;26.01;99996.59;5031123;28;20040;-74
2021/06/01 11:43:47;;;;;;;10.80;3.80;;;;;;;21.01;27.08;100016.06;5047559;28;20099;-74
2021/06/01 11:46:42;;;;;;;5.97;3.20;;;;;;;21.05;26.66;100009.28;5047421;28;20037;-74
2021/06/01 11:51:53;;;;;;;8.20;3.30;;;;;;;20.03;26.89;100015.44;5010152;28;20034;-75
2021/06/01 11:54:19;;;;;;;6.65;3.08;;;;;;;19.90;26.68;100015.13;4994796;28;20073;-72
2021/06/01 11:56:54;;;;;;;8.80;3.60;;;;;;;20.14;26.81;100009.69;5011310;28;20034;-73
2021/06/01 12:13:48;;;;;;;9.60;3.17;;;;;;;19.55;27.65;100013.47;5008626;28;20585;-75
2021/06/01 12:19:17;;;;;;;7.15;2.70;;;;;;;19.16;28.06;100007.94;5008213;28;20140;-75
2021/06/01 12:21:47;;;;;;;8.05;3.83;;;;;;;19.06;27.75;100000.88;5009395;28;20045;-75
2021/06/01 12:24:17;;;;;;;9.52;2.70;;;;;;;19.26;27.71;99995.19;4993507;28;20042;-78
2021/06/01 12:32:22;;;;;;;5.38;3.03;;;;;;;20.03;26.79;99993.97;4995230;28;20896;-74
2021/06/01 13:30:44;;;;;;;8.95;2.65;;;;;;;19.12;28.36;100002.06;5022795;28;20065;-74
2021/06/01 13:39:12;;;;;;;10.50;2.80;;;;;;;18.18;29.18;99999.41;5009305;28;20518;-73
2021/06/01 13:47:14;;;;;;;5.55;2.65;;;;;;;18.70;28.09;99994.91;4994459;28;20452;-73
2021/06/01 13:49:46;;;;;;;5.07;3.00;;;;;;;18.95;27.63;100001.19;4993411;28;20038;-74
2021/06/01 14:19:54;;;;;;;7.65;2.70;;;;;;;18.81;27.55;99994.59;5004377;28;20033;-74
2021/06/01 14:27:51;;;;;;;10.32;3.20;;;;;;;18.59;27.58;99996.91;5002805;28;20058;-72
2021/06/01 14:28:23;;;;;;;6.22;2.67;;;;;;;18.03;28.19;100009.88;5001670;28;20141;-73